sensor_id;sensor_type;location;lat;lon;timestamp;P1;durP1;ratioP1;P2;durP2;ratioP2
32146;SDS011;32190;49.112;8.598;2023-03-05T03:22:14;10.25;;;4.32;;
32146;SDS011;32190;49.112;8.598;2023-03-05T03:28:05;7.47;;;4.47;;
32146;SDS011;32190;49.112;8.598;2023-03-05T03:33:56;8.32;;;5.00;;
32146;SDS011;32190;49.112;8.598;2023-03-05T03:39:55;9.95;;;4.93;;
32146;SDS011;32190;49.112;8.598;2023-03-05T03:45:46;7.57;;;4.15;;
32146;SDS011;32190;49.112;8.598;2023-03-05T03:51:36;7.65;;;4.13;;
32146;SDS011;32190;49.112;8.598;2023-03-05T03:57:30;8.10;;;4.70;;
32146;SDS011;32190;49.112;8.598;2023-03-05T04:03:22;8.70;;;5.20;;
32146;SDS011;32190;49.112;8.598;2023-03-05T04:09:13;9.85;;;5.47;;
32146;SDS011;32190;49.112;8.598;2023-03-05T04:15:03;9.00;;;4.50;;
32146;SDS011;32190;49.112;8.598;2023-03-05T04:20:59;7.57;;;4.15;;
32146;SDS011;32190;49.112;8.598;2023-03-05T04:26:53;6.95;;;3.80;;
32146;SDS011;32190;49.112;8.598;2023-03-05T04:32:59;7.22;;;4.45;;
32146;SDS011;32190;49.112;8.598;2023-03-05T04:38:52;6.88;;;4.30;;
32146;SDS011;32190;49.112;8.598;2023-03-05T04:44:44;9.57;;;5.25;;
32146;SDS011;32190;49.112;8.598;2023-03-05T04:50:46;10.48;;;4.70;;
32146;SDS011;32190;49.112;8.598;2023-03-05T04:56:42;8.60;;;3.85;;
32146;SDS011;32190;49.112;8.598;2023-03-05T05:02:47;7.22;;;4.15;;
32146;SDS011;32190;49.112;8.598;2023-03-05T05:08:45;9.10;;;4.60;;
32146;SDS011;32190;49.112;8.598;2023-03-05T05:14:36;9.35;;;4.88;;
32146;SDS011;32190;49.112;8.598;2023-03-05T05:20:27;7.38;;;3.75;;
32146;SDS011;32190;49.112;8.598;2023-03-05T05:26:17;7.28;;;4.22;;
32146;SDS011;32190;49.112;8.598;2023-03-05T05:32:10;8.35;;;4.10;;
32146;SDS011;32190;49.112;8.598;2023-03-05T05:38:01;7.63;;;4.20;;
32146;SDS011;32190;49.112;8.598;2023-03-05T05:43:51;10.32;;;4.70;;
32146;SDS011;32190;49.112;8.598;2023-03-05T05:49:42;9.30;;;4.28;;
32146;SDS011;32190;49.112;8.598;2023-03-05T05:55:33;7.05;;;4.30;;
32146;SDS011;32190;49.112;8.598;2023-03-05T06:01:25;7.68;;;4.22;;
32146;SDS011;32190;49.112;8.598;2023-03-05T06:07:26;8.60;;;4.78;;
32146;SDS011;32190;49.112;8.598;2023-03-05T06:13:17;7.43;;;5.15;;
32146;SDS011;32190;49.112;8.598;2023-03-05T06:19:10;8.60;;;4.50;;
32146;SDS011;32190;49.112;8.598;2023-03-05T06:25:01;10.07;;;4.25;;
32146;SDS011;32190;49.112;8.598;2023-03-05T06:37:10;8.83;;;4.80;;
32146;SDS011;32190;49.112;8.598;2023-03-05T06:43:01;7.05;;;4.13;;
32146;SDS011;32190;49.112;8.598;2023-03-05T06:48:54;6.47;;;4.18;;
32146;SDS011;32190;49.112;8.598;2023-03-05T06:54:46;10.60;;;4.90;;
32146;SDS011;32190;49.112;8.598;2023-03-05T07:00:36;8.02;;;4.60;;
32146;SDS011;32190;49.112;8.598;2023-03-05T07:06:27;7.20;;;4.40;;
32146;SDS011;32190;49.112;8.598;2023-03-05T07:12:24;9.15;;;4.70;;
32146;SDS011;32190;49.112;8.598;2023-03-05T07:18:31;9.88;;;5.25;;
32146;SDS011;32190;49.112;8.598;2023-03-05T07:24:21;8.70;;;4.45;;
32146;SDS011;32190;49.112;8.598;2023-03-05T07:30:17;7.15;;;4.63;;
32146;SDS011;32190;49.112;8.598;2023-03-05T07:36:08;8.32;;;4.72;;
32146;SDS011;32190;49.112;8.598;2023-03-05T07:42:00;8.95;;;4.80;;
32146;SDS011;32190;49.112;8.598;2023-03-05T07:47:51;8.85;;;4.65;;
32146;SDS011;32190;49.112;8.598;2023-03-05T07:53:49;7.93;;;4.45;;
32146;SDS011;32190;49.112;8.598;2023-03-05T07:59:52;10.10;;;5.00;;
32146;SDS011;32190;49.112;8.598;2023-03-05T08:05:42;9.65;;;5.18;;
32146;SDS011;32190;49.112;8.598;2023-03-05T08:11:34;8.13;;;4.35;;
32146;SDS011;32190;49.112;8.598;2023-03-05T08:17:27;9.20;;;4.75;;
32146;SDS011;32190;49.112;8.598;2023-03-05T08:23:18;9.43;;;5.32;;
32146;SDS011;32190;49.112;8.598;2023-03-05T08:29:09;8.25;;;5.22;;
32146;SDS011;32190;49.112;8.598;2023-03-05T08:35:02;10.43;;;5.10;;
32146;SDS011;32190;49.112;8.598;2023-03-05T08:40:59;6.88;;;4.07;;
32146;SDS011;32190;49.112;8.598;2023-03-05T08:46:51;10.70;;;5.03;;
32146;SDS011;32190;49.112;8.598;2023-03-05T08:52:41;8.07;;;4.38;;
32146;SDS011;32190;49.112;8.598;2023-03-05T08:58:48;8.88;;;4.28;;
32146;SDS011;32190;49.112;8.598;2023-03-05T09:17:08;7.30;;;4.53;;
32146;SDS011;32190;49.112;8.598;2023-03-05T09:23:06;7.35;;;4.18;;
32146;SDS011;32190;49.112;8.598;2023-03-05T09:28:57;8.23;;;5.00;;
32146;SDS011;32190;49.112;8.598;2023-03-05T09:34:47;5.80;;;3.90;;
32146;SDS011;32190;49.112;8.598;2023-03-05T09:46:51;5.97;;;3.92;;
32146;SDS011;32190;49.112;8.598;2023-03-05T09:52:55;5.90;;;4.15;;
32146;SDS011;32190;49.112;8.598;2023-03-05T09:58:54;7.10;;;4.05;;
32146;SDS011;32190;49.112;8.598;2023-03-05T10:05:02;6.15;;;3.78;;
32146;SDS011;32190;49.112;8.598;2023-03-05T10:11:03;4.88;;;3.10;;
32146;SDS011;32190;49.112;8.598;2023-03-05T10:23:13;4.75;;;3.38;;
32146;SDS011;32190;49.112;8.598;2023-03-05T10:35:39;3.97;;;3.03;;
32146;SDS011;32190;49.112;8.598;2023-03-05T10:41:52;3.45;;;2.50;;
32146;SDS011;32190;49.112;8.598;2023-03-05T10:48:11;4.35;;;2.75;;
32146;SDS011;32190;49.112;8.598;2023-03-05T10:54:18;2.92;;;2.65;;
32146;SDS011;32190;49.112;8.598;2023-03-05T11:00:22;3.67;;;2.65;;
32146;SDS011;32190;49.112;8.598;2023-03-05T11:12:35;7.03;;;3.10;;
32146;SDS011;32190;49.112;8.598;2023-03-05T11:18:27;2.88;;;1.80;;
32146;SDS011;32190;49.112;8.598;2023-03-05T11:24:23;3.78;;;2.35;;
32146;SDS011;32190;49.112;8.598;2023-03-05T11:30:27;3.60;;;2.50;;
32146;SDS011;32190;49.112;8.598;2023-03-05T11:36:20;2.88;;;2.17;;
32146;SDS011;32190;49.112;8.598;2023-03-05T11:42:16;6.25;;;2.97;;
32146;SDS011;32190;49.112;8.598;2023-03-05T11:54:28;4.80;;;2.42;;
32146;SDS011;32190;49.112;8.598;2023-03-05T12:00:29;3.33;;;1.85;;
32146;SDS011;32190;49.112;8.598;2023-03-05T12:18:56;4.38;;;2.55;;
32146;SDS011;32190;49.112;8.598;2023-03-05T12:51:12;2.15;;;1.95;;
32146;SDS011;32190;49.112;8.598;2023-03-05T12:57:17;3.45;;;1.80;;
32146;SDS011;32190;49.112;8.598;2023-03-05T13:03:14;2.72;;;1.65;;
32146;SDS011;32190;49.112;8.598;2023-03-05T13:15:06;3.57;;;2.10;;
32146;SDS011;32190;49.112;8.598;2023-03-05T13:26:56;2.63;;;1.88;;
32146;SDS011;32190;49.112;8.598;2023-03-05T13:32:48;2.17;;;1.80;;
32146;SDS011;32190;49.112;8.598;2023-03-05T13:38:44;4.82;;;2.00;;
32146;SDS011;32190;49.112;8.598;2023-03-05T13:44:36;2.80;;;2.15;;
32146;SDS011;32190;49.112;8.598;2023-03-05T13:50:34;3.20;;;1.70;;
32146;SDS011;32190;49.112;8.598;2023-03-05T13:56:26;2.33;;;1.67;;
32146;SDS011;32190;49.112;8.598;2023-03-05T14:02:17;3.40;;;1.90;;
32146;SDS011;32190;49.112;8.598;2023-03-05T14:08:14;2.40;;;1.90;;
32146;SDS011;32190;49.112;8.598;2023-03-05T14:14:15;2.20;;;1.77;;
32146;SDS011;32190;49.112;8.598;2023-03-05T14:38:22;3.63;;;1.70;;
32146;SDS011;32190;49.112;8.598;2023-03-05T14:44:15;3.00;;;1.45;;
32146;SDS011;32190;49.112;8.598;2023-03-05T14:50:09;1.45;;;1.35;;
32146;SDS011;32190;49.112;8.598;2023-03-05T14:56:05;1.50;;;1.30;;
32146;SDS011;32190;49.112;8.598;2023-03-05T15:02:13;1.42;;;1.23;;
32146;SDS011;32190;49.112;8.598;2023-03-05T15:08:19;1.40;;;1.30;;
32146;SDS011;32190;49.112;8.598;2023-03-05T15:14:15;1.65;;;1.45;;
32146;SDS011;32190;49.112;8.598;2023-03-05T15:20:06;2.30;;;1.60;;
32146;SDS011;32190;49.112;8.598;2023-03-05T15:26:00;1.90;;;1.40;;
32146;SDS011;32190;49.112;8.598;2023-03-05T15:31:54;2.28;;;1.70;;
32146;SDS011;32190;49.112;8.598;2023-03-05T15:37:45;2.45;;;1.90;;
32146;SDS011;32190;49.112;8.598;2023-03-05T15:43:35;1.88;;;1.63;;
32146;SDS011;32190;49.112;8.598;2023-03-05T15:49:26;2.97;;;2.17;;
32146;SDS011;32190;49.112;8.598;2023-03-05T15:55:17;2.13;;;1.90;;
32146;SDS011;32190;49.112;8.598;2023-03-05T16:01:10;1.50;;;1.40;;
32146;SDS011;32190;49.112;8.598;2023-03-05T16:07:02;2.20;;;1.70;;
32146;SDS011;32190;49.112;8.598;2023-03-05T16:12:54;2.67;;;1.85;;
32146;SDS011;32190;49.112;8.598;2023-03-05T16:18:56;3.08;;;1.77;;
32146;SDS011;32190;49.112;8.598;2023-03-05T16:24:50;2.88;;;1.60;;
32146;SDS011;32190;49.112;8.598;2023-03-05T16:30:41;2.88;;;1.92;;
32146;SDS011;32190;49.112;8.598;2023-03-05T16:36:31;2.20;;;1.70;;
32146;SDS011;32190;49.112;8.598;2023-03-05T16:42:24;3.10;;;2.05;;
32146;SDS011;32190;49.112;8.598;2023-03-05T16:48:15;2.55;;;1.83;;
32146;SDS011;32190;49.112;8.598;2023-03-05T16:54:05;2.75;;;1.77;;
32146;SDS011;32190;49.112;8.598;2023-03-05T16:59:56;2.78;;;1.85;;
32146;SDS011;32190;49.112;8.598;2023-03-05T17:05:47;2.20;;;1.77;;
32146;SDS011;32190;49.112;8.598;2023-03-05T17:11:38;2.42;;;1.85;;
32146;SDS011;32190;49.112;8.598;2023-03-05T17:17:29;2.95;;;1.85;;
32146;SDS011;32190;49.112;8.598;2023-03-05T17:23:20;2.53;;;2.05;;
32146;SDS011;32190;49.112;8.598;2023-03-05T17:29:11;3.08;;;2.15;;
32146;SDS011;32190;49.112;8.598;2023-03-05T17:35:02;4.10;;;2.40;;
32146;SDS011;32190;49.112;8.598;2023-03-05T17:40:53;3.47;;;2.25;;
32146;SDS011;32190;49.112;8.598;2023-03-05T17:46:45;4.55;;;3.00;;
32146;SDS011;32190;49.112;8.598;2023-03-05T17:52:39;4.63;;;2.55;;
32146;SDS011;32190;49.112;8.598;2023-03-05T17:58:30;3.92;;;2.67;;
32146;SDS011;32190;49.112;8.598;2023-03-05T18:04:20;3.78;;;2.35;;
32146;SDS011;32190;49.112;8.598;2023-03-05T18:10:11;4.78;;;2.88;;
32146;SDS011;32190;49.112;8.598;2023-03-05T18:16:06;3.92;;;2.45;;
32146;SDS011;32190;49.112;8.598;2023-03-05T18:21:56;5.95;;;3.13;;
32146;SDS011;32190;49.112;8.598;2023-03-05T18:27:47;5.25;;;3.10;;
32146;SDS011;32190;49.112;8.598;2023-03-05T18:33:38;3.63;;;2.80;;
32146;SDS011;32190;49.112;8.598;2023-03-05T18:39:28;5.25;;;3.42;;
32146;SDS011;32190;49.112;8.598;2023-03-05T18:45:22;5.95;;;2.95;;
32146;SDS011;32190;49.112;8.598;2023-03-05T18:51:13;4.88;;;2.90;;
32146;SDS011;32190;49.112;8.598;2023-03-05T18:57:06;6.28;;;3.33;;
32146;SDS011;32190;49.112;8.598;2023-03-05T19:02:56;5.50;;;2.90;;
32146;SDS011;32190;49.112;8.598;2023-03-05T19:08:47;5.28;;;3.40;;
32146;SDS011;32190;49.112;8.598;2023-03-05T19:14:45;6.57;;;3.53;;
32146;SDS011;32190;49.112;8.598;2023-03-05T19:20:36;4.38;;;2.83;;
32146;SDS011;32190;49.112;8.598;2023-03-05T19:26:27;4.90;;;3.20;;
32146;SDS011;32190;49.112;8.598;2023-03-05T19:32:17;5.28;;;3.70;;
32146;SDS011;32190;49.112;8.598;2023-03-05T19:38:10;7.75;;;3.47;;
32146;SDS011;32190;49.112;8.598;2023-03-05T19:44:01;5.80;;;3.47;;
32146;SDS011;32190;49.112;8.598;2023-03-05T19:49:52;6.93;;;3.65;;
32146;SDS011;32190;49.112;8.598;2023-03-05T19:55:46;5.55;;;3.20;;
32146;SDS011;32190;49.112;8.598;2023-03-05T20:01:38;3.03;;;2.42;;
32146;SDS011;32190;49.112;8.598;2023-03-05T20:07:38;5.05;;;3.03;;
32146;SDS011;32190;49.112;8.598;2023-03-05T20:13:29;5.47;;;3.60;;
32146;SDS011;32190;49.112;8.598;2023-03-05T20:19:19;4.15;;;3.35;;
32146;SDS011;32190;49.112;8.598;2023-03-05T20:25:11;4.38;;;2.58;;
32146;SDS011;32190;49.112;8.598;2023-03-05T20:31:05;4.32;;;3.70;;
32146;SDS011;32190;49.112;8.598;2023-03-05T20:36:56;4.22;;;2.95;;
32146;SDS011;32190;49.112;8.598;2023-03-05T20:42:47;3.75;;;2.83;;
32146;SDS011;32190;49.112;8.598;2023-03-05T20:48:37;5.68;;;3.13;;
32146;SDS011;32190;49.112;8.598;2023-03-05T20:54:28;6.28;;;3.40;;
32146;SDS011;32190;49.112;8.598;2023-03-05T21:00:22;4.40;;;3.00;;
32146;SDS011;32190;49.112;8.598;2023-03-05T21:06:13;3.70;;;2.80;;
32146;SDS011;32190;49.112;8.598;2023-03-05T21:12:04;4.07;;;3.67;;
32146;SDS011;32190;49.112;8.598;2023-03-05T21:17:54;3.15;;;2.60;;
32146;SDS011;32190;49.112;8.598;2023-03-05T21:23:45;4.35;;;3.03;;
32146;SDS011;32190;49.112;8.598;2023-03-05T21:29:36;3.20;;;2.75;;
32146;SDS011;32190;49.112;8.598;2023-03-05T21:35:27;3.58;;;2.40;;
32146;SDS011;32190;49.112;8.598;2023-03-05T21:41:17;3.67;;;2.75;;
32146;SDS011;32190;49.112;8.598;2023-03-05T21:47:09;3.55;;;2.47;;
32146;SDS011;32190;49.112;8.598;2023-03-05T21:53:00;3.33;;;2.90;;
32146;SDS011;32190;49.112;8.598;2023-03-05T21:58:52;3.72;;;2.72;;
32146;SDS011;32190;49.112;8.598;2023-03-05T22:04:43;3.03;;;2.00;;
32146;SDS011;32190;49.112;8.598;2023-03-05T22:10:34;2.90;;;2.60;;
32146;SDS011;32190;49.112;8.598;2023-03-05T22:16:26;3.25;;;2.58;;
32146;SDS011;32190;49.112;8.598;2023-03-05T22:22:17;3.00;;;2.22;;
32146;SDS011;32190;49.112;8.598;2023-03-05T22:28:08;3.50;;;2.60;;
32146;SDS011;32190;49.112;8.598;2023-03-05T22:34:00;3.63;;;2.50;;
32146;SDS011;32190;49.112;8.598;2023-03-05T22:39:54;2.50;;;2.30;;
32146;SDS011;32190;49.112;8.598;2023-03-05T22:45:45;2.83;;;2.35;;
32146;SDS011;32190;49.112;8.598;2023-03-05T22:51:42;2.60;;;2.30;;
32146;SDS011;32190;49.112;8.598;2023-03-05T22:57:32;2.85;;;2.03;;
32146;SDS011;32190;49.112;8.598;2023-03-05T23:03:23;2.22;;;2.03;;
32146;SDS011;32190;49.112;8.598;2023-03-05T23:09:13;2.67;;;2.40;;
32146;SDS011;32190;49.112;8.598;2023-03-05T23:15:06;2.97;;;2.20;;
32146;SDS011;32190;49.112;8.598;2023-03-05T23:20:58;2.60;;;2.28;;
32146;SDS011;32190;49.112;8.598;2023-03-05T23:26:52;2.05;;;1.85;;
32146;SDS011;32190;49.112;8.598;2023-03-05T23:32:43;2.17;;;1.85;;
32146;SDS011;32190;49.112;8.598;2023-03-05T23:38:34;1.85;;;1.73;;
32146;SDS011;32190;49.112;8.598;2023-03-05T23:44:35;2.67;;;1.90;;
32146;SDS011;32190;49.112;8.598;2023-03-05T23:50:46;2.28;;;2.08;;
32146;SDS011;32190;49.112;8.598;2023-03-05T23:56:38;2.00;;;1.80;;
